createdAt,value
2023-05-14T00:02:46.860Z,99886.16
2023-05-14T00:06:58.448Z,99890.28
2023-05-14T00:11:04.385Z,99878.91
2023-05-14T00:15:08.085Z,99883.25
2023-05-14T00:19:17.449Z,99882.13
2023-05-14T00:23:25.227Z,99874.59
2023-05-14T00:27:30.220Z,99877.84
2023-05-14T00:31:38.995Z,99874.19
2023-05-14T00:35:51.356Z,99862.22
2023-05-14T00:40:03.475Z,99853.63
2023-05-14T00:44:09.560Z,99851.13
2023-05-14T00:48:23.131Z,99851.66
2023-05-14T00:52:26.668Z,99840.25
2023-05-14T00:56:42.510Z,99844.94
2023-05-14T01:00:46.797Z,99843.53
2023-05-14T01:04:52.838Z,99841.38
2023-05-14T01:09:15.211Z,99839.69
2023-05-14T01:13:44.181Z,99845.13
2023-05-14T01:18:05.877Z,99851.16
2023-05-14T01:22:16.613Z,99834.59
2023-05-14T01:26:23.570Z,99834.28
2023-05-14T01:30:34.981Z,99837.28
2023-05-14T01:34:42.782Z,99834.19
2023-05-14T01:38:50.006Z,99839.38
2023-05-14T01:43:05.256Z,99833.78
2023-05-14T01:47:12.774Z,99831.53
2023-05-14T01:51:18.794Z,99836.94
2023-05-14T01:55:25.323Z,99838.28
2023-05-14T01:59:30.601Z,99830.00
2023-05-14T02:03:38.975Z,99827.53
2023-05-14T02:07:49.855Z,99827.19
2023-05-14T02:12:03.080Z,99827.19
2023-05-14T02:16:13.204Z,99824.09
2023-05-14T02:20:19.936Z,99833.22
2023-05-14T02:24:31.708Z,99821.59
2023-05-14T02:28:42.430Z,99820.16
2023-05-14T02:32:48.411Z,99823.19
2023-05-14T02:36:59.966Z,99814.31
2023-05-14T02:41:11.194Z,99818.41
2023-05-14T02:45:21.245Z,99814.91
2023-05-14T02:49:45.339Z,99821.25
2023-05-14T02:53:54.819Z,99817.31
2023-05-14T02:58:09.765Z,99807.06
2023-05-14T03:02:27.979Z,99809.97
2023-05-14T03:06:41.245Z,99813.75
2023-05-14T03:10:54.587Z,99805.59
2023-05-14T03:15:04.744Z,99803.03
2023-05-14T03:19:13.687Z,99817.53
2023-05-14T03:23:29.598Z,99807.00
2023-05-14T03:27:37.729Z,99806.63
2023-05-14T03:31:45.119Z,99806.31
2023-05-14T03:35:53.172Z,99814.22
2023-05-14T03:40:06.377Z,99810.88
2023-05-14T03:44:25.943Z,99812.47
2023-05-14T03:48:32.877Z,99801.94
2023-05-14T03:52:49.772Z,99805.78
2023-05-14T03:57:00.162Z,99806.25
2023-05-14T04:01:10.187Z,99808.44
2023-05-14T04:05:27.557Z,99806.75
2023-05-14T04:09:41.766Z,99812.50
2023-05-14T04:14:02.512Z,99805.69
2023-05-14T04:18:14.955Z,99815.38
2023-05-14T04:22:22.630Z,99814.50
2023-05-14T04:26:28.021Z,99811.75
2023-05-14T04:30:32.021Z,99814.03
2023-05-14T04:34:41.429Z,99811.84
2023-05-14T04:38:47.419Z,99810.78
2023-05-14T04:42:54.632Z,99816.88
2023-05-14T04:47:07.080Z,99820.22
2023-05-14T04:51:18.747Z,99816.97
2023-05-14T04:55:26.346Z,99805.47
2023-05-14T04:59:39.134Z,99819.34
2023-05-14T05:03:58.508Z,99818.59
2023-05-14T05:08:07.808Z,99820.97
2023-05-14T05:12:11.925Z,99819.75
2023-05-14T05:16:18.888Z,99827.78
2023-05-14T05:20:34.750Z,99817.88
2023-05-14T05:24:50.243Z,99823.19
2023-05-14T05:28:56.483Z,99834.38
2023-05-14T05:33:05.768Z,99827.59
2023-05-14T05:37:21.784Z,99832.00
2023-05-14T05:41:32.868Z,99837.75
2023-05-14T05:45:43.017Z,99839.94
2023-05-14T05:49:47.395Z,99839.84
2023-05-14T05:53:56.298Z,99836.31
2023-05-14T05:58:08.736Z,99839.47
2023-05-14T06:02:20.618Z,99839.63
2023-05-14T06:06:33.822Z,99840.00
2023-05-14T06:10:47.524Z,99842.66
2023-05-14T06:14:56.344Z,99837.47
2023-05-14T06:19:06.007Z,99837.78
2023-05-14T06:23:14.785Z,99835.00
2023-05-14T06:27:40.897Z,99834.16
2023-05-14T06:31:47.964Z,99842.41
2023-05-14T06:35:56.474Z,99837.38
2023-05-14T06:40:09.072Z,99836.84
2023-05-14T06:44:20.284Z,99825.22
2023-05-14T06:48:33.770Z,99832.44
2023-05-14T06:52:45.804Z,99833.00
2023-05-14T06:57:01.398Z,99825.28
2023-05-14T07:01:31.066Z,99821.66
2023-05-14T07:05:44.364Z,99818.38
2023-05-14T07:09:55.677Z,99817.28
2023-05-14T07:14:02.472Z,99813.47
2023-05-14T07:18:06.126Z,99816.81
2023-05-14T07:22:15.203Z,99823.19
2023-05-14T07:26:25.674Z,99816.50
2023-05-14T07:30:41.388Z,99808.13
2023-05-14T07:34:48.186Z,99813.38
2023-05-14T07:38:52.601Z,99807.56
2023-05-14T07:43:01.769Z,99810.59
2023-05-14T07:47:13.675Z,99801.34
2023-05-14T07:51:20.420Z,99801.63
2023-05-14T07:55:25.893Z,99794.16
2023-05-14T07:59:35.682Z,99801.28
2023-05-14T08:03:41.012Z,99793.91
2023-05-14T08:07:48.552Z,99791.56
2023-05-14T08:11:51.753Z,99788.16
2023-05-14T08:15:54.055Z,99790.72
2023-05-14T08:20:00.743Z,99787.94
2023-05-14T08:24:09.794Z,99781.28
2023-05-14T08:28:14.572Z,99778.53
2023-05-14T08:32:23.749Z,99772.41
2023-05-14T08:36:28.792Z,99774.72
2023-05-14T08:40:31.110Z,99774.47
2023-05-14T08:44:48.821Z,99770.72
2023-05-14T08:48:58.922Z,99764.22
2023-05-14T08:53:09.606Z,99759.41
2023-05-14T08:57:13.371Z,99753.28
2023-05-14T09:01:19.610Z,99747.63
2023-05-14T09:05:25.870Z,99744.84
2023-05-14T09:09:32.386Z,99743.75
2023-05-14T09:13:40.203Z,99737.56
2023-05-14T09:17:48.942Z,99740.16
2023-05-14T09:22:02.229Z,99738.56
2023-05-14T09:26:06.635Z,99734.09
2023-05-14T09:30:15.475Z,99732.50
2023-05-14T09:34:30.817Z,99736.03
2023-05-14T09:38:41.910Z,99733.53
2023-05-14T09:42:51.394Z,99726.00
2023-05-14T09:46:55.376Z,99729.94
2023-05-14T09:51:01.437Z,99735.94
2023-05-14T09:55:10.350Z,99731.16
2023-05-14T09:59:19.573Z,99729.91
2023-05-14T10:03:26.108Z,99735.00
2023-05-14T10:07:51.330Z,99740.16
2023-05-14T10:12:00.426Z,99734.25
2023-05-14T10:16:23.616Z,99722.38
2023-05-14T10:20:31.757Z,99726.13
2023-05-14T10:24:45.606Z,99736.75
2023-05-14T10:28:51.625Z,99730.13
2023-05-14T10:33:21.714Z,99727.06
2023-05-14T10:37:27.601Z,99723.50
2023-05-14T10:41:35.421Z,99723.81
2023-05-14T10:45:42.880Z,99718.78
2023-05-14T10:49:50.640Z,99711.84
2023-05-14T10:54:05.179Z,99725.25
2023-05-14T10:58:16.777Z,99717.22
2023-05-14T11:02:32.012Z,99724.53
2023-05-14T11:06:40.228Z,99714.28
2023-05-14T11:10:52.446Z,99716.34
2023-05-14T11:15:06.315Z,99718.06
2023-05-14T11:19:34.524Z,99711.25
2023-05-14T11:23:46.973Z,99709.13
2023-05-14T11:28:00.050Z,99705.19
2023-05-14T11:32:09.173Z,99704.88
2023-05-14T11:36:15.612Z,99701.03
2023-05-14T11:40:25.814Z,99698.03
2023-05-14T11:44:33.816Z,99695.00
2023-05-14T11:48:40.793Z,99688.88
2023-05-14T11:52:49.575Z,99690.09
2023-05-14T11:56:52.985Z,99687.34
2023-05-14T12:01:03.674Z,99679.97
2023-05-14T12:05:13.926Z,99680.00
2023-05-14T12:09:24.061Z,99673.03
2023-05-14T12:13:32.731Z,99669.19
2023-05-14T12:17:35.902Z,99660.41
2023-05-14T12:21:44.875Z,99665.69
2023-05-14T12:26:10.486Z,99658.56
2023-05-14T12:30:22.815Z,99654.00
2023-05-14T12:34:37.216Z,99648.44
2023-05-14T12:38:45.383Z,99645.19
2023-05-14T12:42:57.097Z,99637.16
2023-05-14T12:47:04.313Z,99631.97
2023-05-14T12:51:08.220Z,99625.84
2023-05-14T12:55:17.831Z,99615.47
2023-05-14T12:59:29.320Z,99608.69
2023-05-14T13:03:37.730Z,99597.34
2023-05-14T13:07:44.709Z,99603.56
2023-05-14T13:11:52.051Z,99598.81
2023-05-14T13:15:59.251Z,99591.94
2023-05-14T13:20:09.482Z,99596.34
2023-05-14T13:24:16.614Z,99594.94
2023-05-14T13:28:23.193Z,99583.69
2023-05-14T13:32:32.504Z,99575.50
2023-05-14T13:36:53.045Z,99574.34
2023-05-14T13:40:58.146Z,99566.47
2023-05-14T13:45:04.971Z,99547.13
2023-05-14T13:49:09.932Z,99551.97
2023-05-14T13:53:37.866Z,99545.53
2023-05-14T13:57:44.497Z,99539.00
2023-05-14T14:01:53.943Z,99527.31
2023-05-14T14:05:57.368Z,99527.56
2023-05-14T14:10:04.494Z,99505.28
2023-05-14T14:14:16.805Z,99501.06
2023-05-14T14:18:47.047Z,99501.91
2023-05-14T14:22:53.742Z,99498.50
2023-05-14T14:27:03.503Z,99491.56
2023-05-14T14:31:09.994Z,99483.16
2023-05-14T14:35:16.168Z,99480.94
2023-05-14T14:39:22.350Z,99481.03
2023-05-14T14:43:28.616Z,99479.06
2023-05-14T14:47:35.393Z,99471.38
2023-05-14T14:51:43.715Z,99467.78
2023-05-14T14:55:50.653Z,99462.19
2023-05-14T15:00:02.539Z,99467.88
2023-05-14T15:04:12.380Z,99472.56
2023-05-14T15:08:19.898Z,99466.81
2023-05-14T15:12:23.809Z,99469.75
2023-05-14T15:16:30.204Z,99467.84
2023-05-14T15:20:36.860Z,99458.88
2023-05-14T15:24:45.924Z,99464.22
2023-05-14T15:28:52.300Z,99453.16
2023-05-14T15:32:59.904Z,99447.38
2023-05-14T15:37:04.644Z,99445.19
2023-05-14T15:41:14.796Z,99446.06
2023-05-14T15:45:25.661Z,99440.66
2023-05-14T15:49:32.874Z,99437.41
2023-05-14T15:53:38.579Z,99433.81
2023-05-14T15:57:49.985Z,99434.75
2023-05-14T16:01:57.636Z,99437.94
2023-05-14T16:06:01.725Z,99429.72
2023-05-14T16:10:12.937Z,99437.16
2023-05-14T16:14:20.130Z,99427.94
2023-05-14T16:18:35.649Z,99424.13
2023-05-14T16:22:39.293Z,99421.66
2023-05-14T16:27:01.599Z,99409.78
2023-05-14T16:31:09.112Z,99421.63
2023-05-14T16:35:21.115Z,99416.19
2023-05-14T16:39:25.030Z,99421.78
2023-05-14T16:43:29.568Z,99418.38
2023-05-14T16:47:38.173Z,99426.13
2023-05-14T16:51:45.569Z,99434.97
2023-05-14T16:55:50.170Z,99429.50
2023-05-14T16:59:58.751Z,99430.84
2023-05-14T17:04:04.545Z,99424.19
2023-05-14T17:08:12.513Z,99433.03
2023-05-14T17:12:16.077Z,99433.16
2023-05-14T17:16:24.314Z,99437.47
2023-05-14T17:20:30.343Z,99419.56
2023-05-14T17:24:40.571Z,99415.69
2023-05-14T17:28:46.924Z,99423.72
2023-05-14T17:32:51.720Z,99426.25
2023-05-14T17:37:03.040Z,99429.44
2023-05-14T17:41:13.120Z,99439.69
2023-05-14T17:45:24.081Z,99449.03
2023-05-14T17:49:35.859Z,99454.31
2023-05-14T17:53:43.944Z,99451.34
2023-05-14T17:57:54.790Z,99451.78
2023-05-14T18:02:11.700Z,99457.44
2023-05-14T18:06:20.031Z,99463.53
2023-05-14T18:10:33.452Z,99470.44
2023-05-14T18:14:41.338Z,99462.25
2023-05-14T18:18:47.357Z,99468.03
2023-05-14T18:22:59.822Z,99471.28
2023-05-14T18:27:08.798Z,99475.56
2023-05-14T18:31:23.897Z,99476.59
2023-05-14T18:35:28.575Z,99474.59
2023-05-14T18:39:33.649Z,99479.16
2023-05-14T18:43:38.959Z,99486.03
2023-05-14T18:47:53.327Z,99496.03
2023-05-14T18:52:01.888Z,99489.63
2023-05-14T18:56:10.128Z,99491.81
2023-05-14T19:00:19.694Z,99504.59
2023-05-14T19:04:31.160Z,99501.50
2023-05-14T19:08:42.480Z,99509.22
2023-05-14T19:12:49.048Z,99507.69
2023-05-14T19:16:52.649Z,99515.78
2023-05-14T19:21:00.891Z,99522.47
2023-05-14T19:25:05.150Z,99525.53
2023-05-14T19:29:11.408Z,99527.50
2023-05-14T19:33:29.020Z,99524.47
2023-05-14T19:37:38.490Z,99528.38
2023-05-14T19:41:46.162Z,99533.13
2023-05-14T19:45:49.753Z,99527.91
2023-05-14T19:50:01.288Z,99529.06
2023-05-14T19:54:13.862Z,99536.13
2023-05-14T19:58:25.513Z,99537.34
2023-05-14T20:02:30.793Z,99523.00
2023-05-14T20:06:39.095Z,99518.34
2023-05-14T20:10:45.690Z,99513.19
2023-05-14T20:14:53.279Z,99514.84
2023-05-14T20:19:03.264Z,99511.84
2023-05-14T20:23:16.277Z,99515.47
2023-05-14T20:27:22.536Z,99516.59
2023-05-14T20:31:35.129Z,99504.16
2023-05-14T20:35:43.184Z,99506.66
2023-05-14T20:39:52.147Z,99509.47
2023-05-14T20:43:57.614Z,99510.56
2023-05-14T20:48:03.446Z,99502.53
2023-05-14T20:52:10.970Z,99497.81
2023-05-14T20:56:17.565Z,99499.19
2023-05-14T21:00:21.770Z,99505.50
2023-05-14T21:04:28.858Z,99502.19
2023-05-14T21:08:45.972Z,99498.56
2023-05-14T21:12:54.606Z,99498.84
2023-05-14T21:17:00.853Z,99486.66
2023-05-14T21:21:12.828Z,99485.53
2023-05-14T21:25:18.658Z,99485.53
2023-05-14T21:29:22.255Z,99497.41
2023-05-14T21:33:36.187Z,99495.44
2023-05-14T21:37:42.927Z,99497.06
2023-05-14T21:41:47.276Z,99484.88
2023-05-14T21:46:01.181Z,99484.56
2023-05-14T21:50:08.824Z,99477.66
2023-05-14T21:54:21.672Z,99469.88
2023-05-14T21:58:31.531Z,99465.13
2023-05-14T22:02:38.252Z,99470.06
2023-05-14T22:06:42.051Z,99468.66
2023-05-14T22:10:51.401Z,99463.34
2023-05-14T22:14:57.698Z,99456.41
2023-05-14T22:19:05.354Z,99455.88
2023-05-14T22:23:20.363Z,99467.13
2023-05-14T22:27:30.847Z,99453.81
2023-05-14T22:31:45.116Z,99458.44
2023-05-14T22:35:57.561Z,99453.72
2023-05-14T22:40:06.946Z,99445.41
2023-05-14T22:44:10.648Z,99449.22
2023-05-14T22:48:14.875Z,99441.72
2023-05-14T22:52:27.042Z,99443.66
2023-05-14T22:56:37.897Z,99433.97
2023-05-14T23:00:45.773Z,99434.25
2023-05-14T23:05:01.068Z,99432.31
2023-05-14T23:09:10.589Z,99433.44
2023-05-14T23:13:17.645Z,99438.09
2023-05-14T23:17:24.769Z,99434.50
2023-05-14T23:21:34.496Z,99438.09
2023-05-14T23:25:38.509Z,99431.75
2023-05-14T23:29:41.796Z,99430.09
2023-05-14T23:33:48.392Z,99434.25
2023-05-14T23:37:56.269Z,99435.66
2023-05-14T23:42:15.445Z,99429.03
2023-05-14T23:46:29.470Z,99422.16
2023-05-14T23:50:36.778Z,99419.97
2023-05-14T23:54:44.519Z,99417.75
2023-05-14T23:58:50.821Z,99402.03
